createdAt,value
2016-05-21T00:00:04.526Z,14.5
2016-05-21T00:00:14.389Z,14.4
2016-05-21T00:00:24.529Z,14.5
2016-05-21T00:00:34.529Z,14.4
2016-05-21T00:00:44.529Z,14.5
2016-05-21T00:00:54.545Z,14.5
2016-05-21T00:01:04.545Z,14.5
2016-05-21T00:01:14.547Z,14.4
2016-05-21T00:01:24.547Z,14.5
2016-05-21T00:01:34.547Z,14.4
2016-05-21T00:01:44.547Z,14.4
2016-05-21T00:01:54.547Z,14.4
2016-05-21T00:02:04.547Z,14.5
2016-05-21T00:02:14.550Z,14.5
2016-05-21T00:02:24.550Z,14.4
2016-05-21T00:02:34.566Z,14.5
2016-05-21T00:02:44.581Z,14.4
2016-05-21T00:02:54.409Z,14.5
2016-05-21T00:03:04.566Z,14.4
2016-05-21T00:03:14.569Z,14.4
2016-05-21T00:03:24.584Z,14.5
2016-05-21T00:03:34.615Z,14.4
2016-05-21T00:03:44.569Z,14.4
2016-05-21T00:03:54.584Z,14.5
2016-05-21T00:04:04.584Z,14.4
2016-05-21T00:04:14.586Z,14.5
2016-05-21T00:04:24.586Z,14.5
2016-05-21T00:04:34.586Z,14.5
2016-05-21T00:04:44.586Z,14.4
2016-05-21T00:04:54.586Z,14.4
2016-05-21T00:05:04.430Z,14.4
2016-05-21T00:05:14.589Z,14.5
2016-05-21T00:05:24.605Z,14.5
2016-05-21T00:05:34.605Z,14.5
2016-05-21T00:05:44.589Z,14.5
2016-05-21T00:05:54.605Z,14.4
2016-05-21T00:06:04.605Z,14.5
2016-05-21T00:06:14.607Z,14.4
2016-05-21T00:06:24.607Z,14.5
2016-05-21T00:06:34.607Z,14.4
2016-05-21T00:06:44.607Z,14.4
2016-05-21T00:06:54.607Z,14.4
2016-05-21T00:07:04.607Z,14.5
2016-05-21T00:07:14.611Z,14.4
2016-05-21T00:07:24.626Z,14.3
2016-05-21T00:07:34.626Z,14.4
2016-05-21T00:07:44.626Z,14.4
2016-05-21T00:07:54.470Z,14.4
2016-05-21T00:08:04.626Z,14.5
2016-05-21T00:08:14.628Z,14.5
2016-05-21T00:08:24.628Z,14.3
2016-05-21T00:08:34.644Z,14.5
2016-05-21T00:08:44.628Z,14.4
2016-05-21T00:08:54.644Z,14.4
2016-05-21T00:09:04.628Z,14.3
2016-05-21T00:09:14.647Z,14.4
2016-05-21T00:09:24.647Z,14.4
2016-05-21T00:09:34.491Z,14.3
2016-05-21T00:09:44.663Z,14.4
2016-05-21T00:09:54.647Z,14.3
2016-05-21T00:10:04.663Z,14.5
2016-05-21T00:10:14.665Z,14.3
2016-05-21T00:10:24.665Z,14.5
2016-05-21T00:10:34.665Z,14.5
2016-05-21T00:10:44.665Z,14.3
2016-05-21T00:10:55.024Z,14.3
2016-05-21T00:11:04.524Z,14.3
2016-05-21T00:11:14.961Z,14.3
2016-05-21T00:11:24.695Z,14.4
2016-05-21T00:11:34.883Z,14.5
2016-05-21T00:11:44.742Z,14.3
2016-05-21T00:11:54.695Z,14.4
2016-05-21T00:12:04.695Z,14.4
2016-05-21T00:12:14.699Z,14.4
2016-05-21T00:12:24.714Z,14.5
2016-05-21T00:12:34.714Z,14.4
2016-05-21T00:12:44.730Z,14.4
2016-05-21T00:12:54.730Z,14.3
2016-05-21T00:13:04.574Z,14.4
2016-05-21T00:13:14.748Z,14.5
2016-05-21T00:13:24.732Z,14.4
2016-05-21T00:13:34.732Z,14.4
2016-05-21T00:13:44.748Z,14.4
2016-05-21T00:13:54.748Z,14.5
2016-05-21T00:14:04.748Z,14.4
2016-05-21T00:14:14.766Z,14.4
2016-05-21T00:14:24.766Z,14.5
2016-05-21T00:14:34.766Z,14.5
2016-05-21T00:14:44.782Z,14.4
2016-05-21T00:14:54.782Z,14.4
2016-05-21T00:15:04.782Z,14.5
2016-05-21T00:15:14.801Z,14.5
2016-05-21T00:15:24.801Z,14.4
2016-05-21T00:15:34.801Z,14.4
2016-05-21T00:15:44.801Z,14.4
2016-05-21T00:15:54.801Z,14.4
2016-05-21T00:16:04.801Z,14.4
2016-05-21T00:16:14.812Z,14.4
2016-05-21T00:16:24.827Z,14.5
2016-05-21T00:16:34.827Z,14.5
2016-05-21T00:16:44.827Z,14.4
2016-05-21T00:16:54.827Z,14.4
2016-05-21T00:17:04.827Z,14.4
2016-05-21T00:17:14.835Z,14.4
2016-05-21T00:17:24.835Z,14.5
2016-05-21T00:17:34.835Z,14.4
2016-05-21T00:17:44.835Z,14.4
2016-05-21T00:17:54.835Z,14.4
2016-05-21T00:18:04.851Z,14.5
2016-05-21T00:18:14.704Z,14.4
2016-05-21T00:18:24.860Z,14.5
2016-05-21T00:18:34.860Z,14.4
2016-05-21T00:18:44.860Z,14.5
2016-05-21T00:18:54.891Z,14.5
2016-05-21T00:19:04.860Z,14.4
2016-05-21T00:19:14.727Z,14.4
2016-05-21T00:19:24.883Z,14.4
2016-05-21T00:19:34.883Z,14.4
2016-05-21T00:19:44.883Z,14.4
2016-05-21T00:19:54.883Z,14.5
2016-05-21T00:20:04.883Z,14.5
2016-05-21T00:20:14.891Z,14.4
2016-05-21T00:20:24.891Z,14.4
2016-05-21T00:20:34.891Z,14.5
2016-05-21T00:20:44.891Z,14.5
2016-05-21T00:20:54.907Z,14.4
2016-05-21T00:21:04.907Z,14.4
2016-05-21T00:21:14.913Z,14.5
2016-05-21T00:21:24.913Z,14.5
2016-05-21T00:21:34.913Z,14.5
2016-05-21T00:21:44.913Z,14.4
2016-05-21T00:21:54.913Z,14.4
2016-05-21T00:22:04.913Z,14.4
2016-05-21T00:22:14.935Z,14.4
2016-05-21T00:22:24.935Z,14.4
2016-05-21T00:22:34.935Z,14.4
2016-05-21T00:22:44.935Z,14.4
2016-05-21T00:22:54.919Z,14.4
2016-05-21T00:23:04.950Z,14.5
2016-05-21T00:23:14.939Z,14.4
2016-05-21T00:23:24.939Z,14.4
2016-05-21T00:23:34.939Z,14.5
2016-05-21T00:23:44.939Z,14.4
2016-05-21T00:23:54.954Z,14.5
2016-05-21T00:24:04.954Z,14.5
2016-05-21T00:24:14.945Z,14.4
2016-05-21T00:24:24.945Z,14.4
2016-05-21T00:24:34.960Z,14.4
2016-05-21T00:24:44.960Z,14.4
2016-05-21T00:24:54.960Z,14.5
2016-05-21T00:25:04.960Z,14.4
2016-05-21T00:25:14.964Z,14.5
2016-05-21T00:25:24.980Z,14.4
2016-05-21T00:25:34.980Z,14.4
2016-05-21T00:25:44.964Z,14.5
2016-05-21T00:25:54.824Z,14.5
2016-05-21T00:26:04.839Z,14.5
2016-05-21T00:26:14.984Z,14.4
2016-05-21T00:26:24.984Z,14.5
2016-05-21T00:26:35.328Z,14.5
2016-05-21T00:26:45.000Z,14.5
2016-05-21T00:26:54.984Z,14.5
2016-05-21T00:27:05.000Z,14.5
2016-05-21T00:27:14.847Z,14.4
2016-05-21T00:27:25.004Z,14.4
2016-05-21T00:27:35.004Z,14.4
2016-05-21T00:27:45.004Z,14.4
2016-05-21T00:27:55.004Z,14.5
2016-05-21T00:28:05.004Z,14.4
2016-05-21T00:28:15.007Z,14.4
2016-05-21T00:28:25.007Z,14.4
2016-05-21T00:28:35.022Z,14.5
2016-05-21T00:28:44.866Z,14.4
2016-05-21T00:28:55.022Z,14.4
2016-05-21T00:29:05.022Z,14.4
2016-05-21T00:29:15.025Z,14.4
2016-05-21T00:29:25.025Z,14.5
2016-05-21T00:29:35.025Z,14.5
2016-05-21T00:29:45.041Z,14.4
2016-05-21T00:29:54.885Z,14.4
2016-05-21T00:30:05.025Z,14.5
2016-05-21T00:30:14.888Z,14.5
2016-05-21T00:30:25.044Z,14.5
2016-05-21T00:30:35.044Z,14.5
2016-05-21T00:30:45.044Z,14.4
2016-05-21T00:30:55.044Z,14.4
2016-05-21T00:31:05.044Z,14.5
2016-05-21T00:31:15.048Z,14.5
2016-05-21T00:31:25.048Z,14.4
2016-05-21T00:31:34.907Z,14.4
2016-05-21T00:31:45.063Z,14.5
2016-05-21T00:31:55.063Z,14.5
2016-05-21T00:32:05.063Z,14.5
2016-05-21T00:32:15.066Z,14.5
2016-05-21T00:32:24.910Z,14.5
2016-05-21T00:32:34.910Z,14.5
2016-05-21T00:32:45.066Z,14.5
2016-05-21T00:32:55.066Z,14.4
2016-05-21T00:33:05.082Z,14.5
2016-05-21T00:33:15.084Z,14.3
2016-05-21T00:33:25.084Z,14.5
2016-05-21T00:33:35.084Z,14.5
2016-05-21T00:33:45.084Z,14.4
2016-05-21T00:33:55.084Z,14.5
2016-05-21T00:34:05.084Z,14.4
2016-05-21T00:34:15.087Z,14.3
2016-05-21T00:34:25.087Z,14.4
2016-05-21T00:34:35.087Z,14.4
2016-05-21T00:34:45.087Z,14.3
2016-05-21T00:34:55.103Z,14.5
2016-05-21T00:35:05.087Z,14.5
2016-05-21T00:35:15.106Z,14.5
2016-05-21T00:35:25.106Z,14.5
2016-05-21T00:35:35.106Z,14.4
2016-05-21T00:35:45.121Z,14.4
2016-05-21T00:35:55.121Z,14.4
2016-05-21T00:36:04.965Z,14.4
2016-05-21T00:36:15.123Z,14.5
2016-05-21T00:36:25.123Z,14.4
2016-05-21T00:36:35.123Z,14.4
2016-05-21T00:36:45.123Z,14.4
2016-05-21T00:36:55.123Z,14.3
2016-05-21T00:37:05.123Z,14.5
2016-05-21T00:37:15.126Z,14.3
2016-05-21T00:37:25.126Z,14.4
2016-05-21T00:37:35.126Z,14.3
2016-05-21T00:37:45.126Z,14.5
2016-05-21T00:37:55.142Z,14.4
2016-05-21T00:38:05.142Z,14.4
2016-05-21T00:38:15.145Z,14.5
2016-05-21T00:38:25.145Z,14.3
2016-05-21T00:38:35.145Z,14.3
2016-05-21T00:38:45.004Z,14.4
2016-05-21T00:38:55.145Z,14.4
2016-05-21T00:39:05.145Z,14.4
2016-05-21T00:39:15.163Z,14.4
2016-05-21T00:39:25.147Z,14.4
2016-05-21T00:39:35.163Z,14.5
2016-05-21T00:39:45.163Z,14.4
2016-05-21T00:39:55.006Z,14.4
2016-05-21T00:40:05.163Z,14.4
2016-05-21T00:40:15.166Z,14.4
2016-05-21T00:40:25.166Z,14.5
2016-05-21T00:40:35.025Z,14.4
2016-05-21T00:40:45.166Z,14.4
2016-05-21T00:40:55.166Z,14.4
2016-05-21T00:41:05.447Z,14.3
2016-05-21T00:41:15.434Z,14.4
2016-05-21T00:41:25.184Z,14.4
2016-05-21T00:41:35.184Z,14.4
2016-05-21T00:41:45.184Z,14.4
2016-05-21T00:41:55.184Z,14.3
2016-05-21T00:42:05.184Z,14.4
2016-05-21T00:42:15.186Z,14.3
2016-05-21T00:42:25.186Z,14.3
2016-05-21T00:42:35.202Z,14.3
2016-05-21T00:42:45.202Z,14.3
2016-05-21T00:42:55.202Z,14.3
2016-05-21T00:43:05.202Z,14.3
2016-05-21T00:43:15.205Z,14.3
2016-05-21T00:43:25.205Z,14.3
2016-05-21T00:43:35.064Z,14.4
2016-05-21T00:43:45.220Z,14.3
2016-05-21T00:43:55.205Z,14.3
2016-05-21T00:44:05.220Z,14.3
2016-05-21T00:44:15.222Z,14.3
2016-05-21T00:44:25.222Z,14.3
2016-05-21T00:44:35.222Z,14.3
2016-05-21T00:44:45.222Z,14.4
2016-05-21T00:44:55.222Z,14.3
2016-05-21T00:45:05.238Z,14.3
2016-05-21T00:45:15.226Z,14.3
2016-05-21T00:45:25.226Z,14.3
2016-05-21T00:45:35.242Z,14.3
2016-05-21T00:45:45.258Z,14.3
2016-05-21T00:45:55.242Z,14.3
2016-05-21T00:46:05.242Z,14.3
2016-05-21T00:46:15.245Z,14.3
2016-05-21T00:46:25.245Z,14.3
2016-05-21T00:46:35.261Z,14.3
2016-05-21T00:46:45.261Z,14.3
2016-05-21T00:46:55.261Z,14.3
2016-05-21T00:47:05.245Z,14.3
2016-05-21T00:47:15.263Z,14.3
2016-05-21T00:47:25.106Z,14.3
2016-05-21T00:47:35.263Z,14.2
2016-05-21T00:47:45.263Z,14.3
2016-05-21T00:47:55.263Z,14.3
2016-05-21T00:48:05.122Z,14.2
2016-05-21T00:48:15.281Z,14.3
2016-05-21T00:48:25.266Z,14.3
2016-05-21T00:48:35.125Z,14.3
2016-05-21T00:48:45.281Z,14.3
2016-05-21T00:48:55.281Z,14.2
2016-05-21T00:49:05.281Z,14.2
2016-05-21T00:49:15.283Z,14.3
2016-05-21T00:49:25.283Z,14.3
2016-05-21T00:49:35.283Z,14.2
2016-05-21T00:49:45.299Z,14.2
2016-05-21T00:49:55.299Z,14.2
2016-05-21T00:50:05.299Z,14.2
2016-05-21T00:50:15.302Z,14.2
2016-05-21T00:50:25.302Z,14.2
2016-05-21T00:50:35.318Z,14.2
2016-05-21T00:50:45.302Z,14.2
2016-05-21T00:50:55.161Z,14.1
2016-05-21T00:51:05.302Z,14.2
2016-05-21T00:51:15.305Z,14.1
2016-05-21T00:51:25.321Z,14.1
2016-05-21T00:51:35.321Z,14.1
2016-05-21T00:51:45.321Z,14.1
2016-05-21T00:51:55.180Z,14.1
2016-05-21T00:52:05.321Z,14.2
2016-05-21T00:52:15.338Z,14.2
2016-05-21T00:52:25.323Z,14.2
2016-05-21T00:52:35.323Z,14.2
2016-05-21T00:52:45.323Z,14.2
2016-05-21T00:52:55.323Z,14.2
2016-05-21T00:53:05.323Z,14.2
2016-05-21T00:53:15.185Z,14.1
2016-05-21T00:53:25.341Z,14.1
2016-05-21T00:53:35.341Z,14.1
2016-05-21T00:53:45.341Z,14.1
2016-05-21T00:53:55.341Z,14.2
2016-05-21T00:54:05.341Z,14.1
2016-05-21T00:54:15.343Z,14.2
2016-05-21T00:54:25.359Z,14.1
2016-05-21T00:54:35.343Z,14.1
2016-05-21T00:54:45.343Z,14.1
2016-05-21T00:54:55.359Z,14.1
2016-05-21T00:55:05.359Z,14.1
2016-05-21T00:55:15.362Z,14.1
2016-05-21T00:55:25.362Z,14.1
2016-05-21T00:55:35.362Z,14
2016-05-21T00:55:45.362Z,14.1
2016-05-21T00:55:55.581Z,14.1
2016-05-21T00:56:05.377Z,14.1
2016-05-21T00:56:15.224Z,14
2016-05-21T00:56:25.724Z,14.1
2016-05-21T00:56:35.380Z,14.1
2016-05-21T00:56:45.443Z,14.1
2016-05-21T00:56:55.380Z,14
2016-05-21T00:57:05.380Z,14.1
2016-05-21T00:57:15.382Z,14
2016-05-21T00:57:25.382Z,14
2016-05-21T00:57:35.382Z,14.1
2016-05-21T00:57:45.382Z,14
2016-05-21T00:57:55.382Z,14
2016-05-21T00:58:05.398Z,14.1
2016-05-21T00:58:15.401Z,14.1
2016-05-21T00:58:25.401Z,14
2016-05-21T00:58:35.417Z,14
2016-05-21T00:58:45.401Z,14
2016-05-21T00:58:55.401Z,14
2016-05-21T00:59:05.401Z,14
2016-05-21T00:59:15.404Z,14
2016-05-21T00:59:25.263Z,14
2016-05-21T00:59:35.404Z,14
2016-05-21T00:59:45.263Z,14
2016-05-21T00:59:55.420Z,14
2016-05-21T01:00:05.420Z,14
2016-05-21T01:00:15.423Z,14.1
2016-05-21T01:00:25.423Z,14
2016-05-21T01:00:35.423Z,14
2016-05-21T01:00:45.438Z,14
2016-05-21T01:00:55.423Z,14
2016-05-21T01:01:05.438Z,14
2016-05-21T01:01:15.285Z,14
2016-05-21T01:01:25.441Z,14
2016-05-21T01:01:35.441Z,14
2016-05-21T01:01:45.441Z,14
2016-05-21T01:01:55.441Z,14
2016-05-21T01:02:05.441Z,14
2016-05-21T01:02:15.443Z,14
2016-05-21T01:02:25.459Z,14
2016-05-21T01:02:35.459Z,14
2016-05-21T01:02:45.459Z,13.9
2016-05-21T01:02:55.459Z,13.9
2016-05-21T01:03:05.459Z,14
2016-05-21T01:03:15.462Z,14
2016-05-21T01:03:25.462Z,14
2016-05-21T01:03:35.462Z,13.9
2016-05-21T01:03:45.462Z,14
2016-05-21T01:03:55.478Z,13.9
2016-05-21T01:04:05.462Z,14
2016-05-21T01:04:15.481Z,14
2016-05-21T01:04:25.465Z,14
2016-05-21T01:04:35.481Z,13.9
2016-05-21T01:04:45.481Z,14
2016-05-21T01:04:55.481Z,14
2016-05-21T01:05:05.481Z,13.9
2016-05-21T01:05:15.498Z,13.9
2016-05-21T01:05:25.498Z,14
2016-05-21T01:05:35.342Z,13.9
2016-05-21T01:05:45.498Z,13.9
2016-05-21T01:05:55.498Z,13.9
2016-05-21T01:06:05.498Z,13.9
2016-05-21T01:06:15.501Z,13.9
2016-05-21T01:06:25.501Z,13.9
2016-05-21T01:06:35.501Z,13.9
2016-05-21T01:06:45.501Z,13.9
2016-05-21T01:06:55.501Z,13.9
2016-05-21T01:07:05.501Z,13.9
2016-05-21T01:07:15.520Z,13.9
2016-05-21T01:07:25.520Z,13.9
2016-05-21T01:07:35.520Z,13.9
2016-05-21T01:07:45.520Z,13.9
2016-05-21T01:07:55.520Z,13.8
2016-05-21T01:08:05.535Z,13.9
2016-05-21T01:08:15.522Z,13.8
2016-05-21T01:08:25.381Z,13.9
2016-05-21T01:08:35.522Z,13.9
2016-05-21T01:08:45.537Z,13.9
2016-05-21T01:08:55.553Z,13.8
2016-05-21T01:09:05.537Z,13.8
2016-05-21T01:09:15.540Z,13.9
2016-05-21T01:09:25.540Z,13.8
2016-05-21T01:09:35.540Z,13.9
2016-05-21T01:09:45.540Z,13.8
2016-05-21T01:09:55.540Z,13.8
2016-05-21T01:10:05.540Z,13.7
2016-05-21T01:10:15.542Z,13.7
2016-05-21T01:10:25.558Z,13.8
2016-05-21T01:10:35.558Z,13.7
2016-05-21T01:10:45.558Z,13.8
2016-05-21T01:10:55.558Z,13.7
2016-05-21T01:11:05.558Z,13.9
2016-05-21T01:11:15.608Z,13.9
2016-05-21T01:11:25.858Z,13.8
2016-05-21T01:11:35.577Z,13.7
2016-05-21T01:11:45.889Z,13.8
2016-05-21T01:11:55.577Z,13.8
2016-05-21T01:12:05.577Z,13.8
2016-05-21T01:12:15.580Z,13.8
2016-05-21T01:12:25.580Z,13.8
2016-05-21T01:12:35.580Z,13.7
2016-05-21T01:12:45.580Z,13.9
2016-05-21T01:12:55.595Z,13.8
2016-05-21T01:13:05.423Z,13.8
2016-05-21T01:13:15.582Z,13.7
2016-05-21T01:13:25.582Z,13.8
2016-05-21T01:13:35.597Z,13.8
2016-05-21T01:13:45.441Z,13.8
2016-05-21T01:13:55.613Z,13.8
2016-05-21T01:14:05.597Z,13.7
2016-05-21T01:14:15.617Z,13.8
2016-05-21T01:14:25.617Z,13.8
2016-05-21T01:14:35.461Z,13.8
2016-05-21T01:14:45.601Z,13.8
2016-05-21T01:14:55.601Z,13.7
2016-05-21T01:15:05.617Z,13.7
2016-05-21T01:15:15.603Z,13.8
2016-05-21T01:15:25.619Z,13.8
2016-05-21T01:15:35.619Z,13.7
2016-05-21T01:15:45.619Z,13.8
2016-05-21T01:15:55.619Z,13.8
2016-05-21T01:16:05.619Z,13.7
2016-05-21T01:16:15.622Z,13.7
2016-05-21T01:16:25.622Z,13.8
2016-05-21T01:16:35.638Z,13.7
2016-05-21T01:16:45.638Z,13.8
2016-05-21T01:16:55.481Z,13.7
2016-05-21T01:17:05.638Z,13.7
2016-05-21T01:17:15.641Z,13.7
2016-05-21T01:17:25.641Z,13.7
2016-05-21T01:17:35.641Z,13.7
2016-05-21T01:17:45.641Z,13.7
2016-05-21T01:17:55.641Z,13.8
2016-05-21T01:18:05.656Z,13.7
2016-05-21T01:18:15.658Z,13.7
2016-05-21T01:18:25.658Z,13.7
2016-05-21T01:18:35.658Z,13.6
2016-05-21T01:18:45.658Z,13.7
2016-05-21T01:18:55.658Z,13.6
2016-05-21T01:19:05.658Z,13.7
2016-05-21T01:19:15.661Z,13.6
2016-05-21T01:19:25.661Z,13.6
2016-05-21T01:19:35.661Z,13.6
2016-05-21T01:19:45.677Z,13.7
2016-05-21T01:19:55.677Z,13.6
2016-05-21T01:20:05.661Z,13.6
2016-05-21T01:20:15.680Z,13.7
2016-05-21T01:20:25.680Z,13.6
2016-05-21T01:20:35.680Z,13.6
2016-05-21T01:20:45.680Z,13.6
2016-05-21T01:20:55.680Z,13.6
2016-05-21T01:21:05.680Z,13.7
2016-05-21T01:21:15.682Z,13.6
2016-05-21T01:21:25.682Z,13.6
2016-05-21T01:21:35.682Z,13.6
2016-05-21T01:21:45.697Z,13.7
2016-05-21T01:21:55.697Z,13.6
2016-05-21T01:22:05.697Z,13.6
2016-05-21T01:22:15.700Z,13.6
2016-05-21T01:22:25.700Z,13.6
2016-05-21T01:22:35.700Z,13.6
2016-05-21T01:22:45.700Z,13.6
2016-05-21T01:22:55.716Z,13.6
2016-05-21T01:23:05.700Z,13.7
2016-05-21T01:23:15.703Z,13.7
2016-05-21T01:23:25.719Z,13.7
2016-05-21T01:23:35.719Z,13.7
2016-05-21T01:23:45.719Z,13.6
2016-05-21T01:23:55.719Z,13.7
2016-05-21T01:24:05.719Z,13.7
2016-05-21T01:24:15.721Z,13.7
2016-05-21T01:24:25.830Z,13.6
2016-05-21T01:24:35.721Z,13.5
2016-05-21T01:24:45.737Z,13.6
2016-05-21T01:24:55.721Z,13.6
2016-05-21T01:25:05.737Z,13.6
2016-05-21T01:25:15.740Z,13.6
2016-05-21T01:25:25.740Z,13.7
2016-05-21T01:25:35.740Z,13.6
2016-05-21T01:25:45.740Z,13.6
2016-05-21T01:25:55.755Z,13.5
2016-05-21T01:26:06.177Z,13.6
2016-05-21T01:26:15.757Z,13.6
2016-05-21T01:26:25.898Z,13.6
2016-05-21T01:26:35.757Z,13.5
2016-05-21T01:26:45.757Z,13.6
2016-05-21T01:26:55.601Z,13.6
2016-05-21T01:27:05.757Z,13.6
2016-05-21T01:27:15.760Z,13.5
2016-05-21T01:27:25.760Z,13.6
2016-05-21T01:27:35.620Z,13.5
2016-05-21T01:27:45.760Z,13.5
2016-05-21T01:27:55.776Z,13.5
2016-05-21T01:28:05.776Z,13.6
2016-05-21T01:28:15.779Z,13.6
2016-05-21T01:28:25.779Z,13.6
2016-05-21T01:28:35.638Z,13.5
2016-05-21T01:28:45.779Z,13.6
2016-05-21T01:28:55.623Z,13.6
2016-05-21T01:29:05.623Z,13.7
2016-05-21T01:29:15.782Z,13.6
2016-05-21T01:29:25.798Z,13.6
2016-05-21T01:29:35.782Z,13.5
2016-05-21T01:29:45.798Z,13.6
2016-05-21T01:29:55.798Z,13.6
2016-05-21T01:30:05.798Z,13.6
2016-05-21T01:30:15.801Z,13.6
2016-05-21T01:30:25.801Z,13.5
2016-05-21T01:30:35.801Z,13.6
2016-05-21T01:30:45.801Z,13.5
2016-05-21T01:30:55.816Z,13.6
2016-05-21T01:31:05.801Z,13.5
2016-05-21T01:31:15.803Z,13.6
2016-05-21T01:31:25.818Z,13.5
2016-05-21T01:31:35.818Z,13.5
2016-05-21T01:31:45.818Z,13.6
2016-05-21T01:31:55.818Z,13.6
2016-05-21T01:32:05.818Z,13.5
2016-05-21T01:32:15.837Z,13.6
2016-05-21T01:32:25.821Z,13.5
2016-05-21T01:32:35.821Z,13.5
2016-05-21T01:32:45.837Z,13.5
2016-05-21T01:32:55.681Z,13.5
2016-05-21T01:33:05.837Z,13.5
2016-05-21T01:33:15.840Z,13.5
2016-05-21T01:33:25.840Z,13.5
2016-05-21T01:33:35.840Z,13.5
2016-05-21T01:33:45.840Z,13.5
2016-05-21T01:33:55.840Z,13.5
2016-05-21T01:34:05.855Z,13.5
2016-05-21T01:34:15.842Z,13.4
2016-05-21T01:34:25.701Z,13.4
2016-05-21T01:34:35.857Z,13.5
2016-05-21T01:34:45.857Z,13.5
2016-05-21T01:34:55.857Z,13.5
2016-05-21T01:35:05.857Z,13.5
2016-05-21T01:35:15.860Z,13.5
2016-05-21T01:35:25.860Z,13.4
2016-05-21T01:35:35.860Z,13.4
2016-05-21T01:35:45.860Z,13.5
2016-05-21T01:35:55.876Z,13.5
2016-05-21T01:36:05.860Z,13.4
2016-05-21T01:36:15.879Z,13.4
2016-05-21T01:36:25.879Z,13.5
2016-05-21T01:36:35.879Z,13.5
2016-05-21T01:36:45.879Z,13.5
2016-05-21T01:36:55.879Z,13.5
2016-05-21T01:37:05.879Z,13.4
2016-05-21T01:37:15.881Z,13.5
2016-05-21T01:37:25.881Z,13.4
2016-05-21T01:37:35.897Z,13.4
2016-05-21T01:37:45.897Z,13.4
2016-05-21T01:37:55.897Z,13.4
2016-05-21T01:38:05.897Z,13.5
2016-05-21T01:38:15.900Z,13.4
2016-05-21T01:38:25.900Z,13.4
2016-05-21T01:38:35.900Z,13.4
2016-05-21T01:38:45.900Z,13.4
2016-05-21T01:38:55.900Z,13.4
2016-05-21T01:39:05.915Z,13.4
2016-05-21T01:39:15.918Z,13.4
2016-05-21T01:39:25.918Z,13.4
2016-05-21T01:39:35.918Z,13.4
2016-05-21T01:39:45.918Z,13.5
2016-05-21T01:39:55.934Z,13.4
2016-05-21T01:40:05.762Z,13.4
2016-05-21T01:40:15.920Z,13.4
2016-05-21T01:40:25.920Z,13.5
2016-05-21T01:40:35.936Z,13.4
2016-05-21T01:40:45.936Z,13.4
2016-05-21T01:40:55.936Z,13.4
2016-05-21T01:41:05.998Z,13.4
2016-05-21T01:41:15.798Z,13.5
2016-05-21T01:41:25.798Z,13.5
2016-05-21T01:41:35.955Z,13.4
2016-05-21T01:41:45.798Z,13.4
2016-05-21T01:41:55.798Z,13.4
2016-05-21T01:42:05.939Z,13.4
2016-05-21T01:42:15.958Z,13.5
2016-05-21T01:42:25.942Z,13.4
2016-05-21T01:42:35.958Z,13.4
2016-05-21T01:42:45.973Z,13.4
2016-05-21T01:42:55.958Z,13.4
2016-05-21T01:43:05.942Z,13.4
2016-05-21T01:43:15.976Z,13.4
2016-05-21T01:43:25.961Z,13.4
2016-05-21T01:43:35.961Z,13.5
2016-05-21T01:43:45.961Z,13.3
2016-05-21T01:43:55.976Z,13.4
2016-05-21T01:44:05.976Z,13.4
2016-05-21T01:44:15.979Z,13.5
2016-05-21T01:44:25.979Z,13.4
2016-05-21T01:44:35.979Z,13.4
2016-05-21T01:44:45.979Z,13.4
2016-05-21T01:44:55.823Z,13.4
2016-05-21T01:45:05.979Z,13.5
2016-05-21T01:45:15.981Z,13.4
2016-05-21T01:45:25.997Z,13.4
2016-05-21T01:45:35.997Z,13.4
2016-05-21T01:45:45.841Z,13.4
2016-05-21T01:45:55.997Z,13.4
2016-05-21T01:46:05.997Z,13.4
2016-05-21T01:46:16.000Z,13.5
2016-05-21T01:46:26.000Z,13.4
2016-05-21T01:46:36.000Z,13.4
2016-05-21T01:46:46.000Z,13.4
2016-05-21T01:46:56.015Z,13.4
2016-05-21T01:47:06.000Z,13.4
2016-05-21T01:47:16.017Z,13.4
2016-05-21T01:47:25.861Z,13.4
2016-05-21T01:47:36.017Z,13.4
2016-05-21T01:47:46.017Z,13.4
2016-05-21T01:47:56.017Z,13.4
2016-05-21T01:48:06.017Z,13.4
2016-05-21T01:48:15.880Z,13.4
2016-05-21T01:48:26.020Z,13.4
2016-05-21T01:48:36.020Z,13.4
2016-05-21T01:48:46.020Z,13.4
2016-05-21T01:48:56.020Z,13.4
2016-05-21T01:49:06.036Z,13.4
2016-05-21T01:49:16.039Z,13.4
2016-05-21T01:49:26.039Z,13.4
2016-05-21T01:49:36.086Z,13.4
2016-05-21T01:49:46.039Z,13.4
2016-05-21T01:49:56.039Z,13.4
2016-05-21T01:50:05.898Z,13.4
2016-05-21T01:50:16.041Z,13.4
2016-05-21T01:50:26.057Z,13.4
2016-05-21T01:50:35.947Z,13.4
2016-05-21T01:50:46.057Z,13.4
2016-05-21T01:50:56.057Z,13.4
2016-05-21T01:51:06.057Z,13.4
2016-05-21T01:51:16.060Z,13.4
2016-05-21T01:51:26.060Z,13.4
2016-05-21T01:51:36.107Z,13.4
2016-05-21T01:51:46.060Z,13.4
2016-05-21T01:51:56.075Z,13.4
2016-05-21T01:52:06.075Z,13.4
2016-05-21T01:52:16.077Z,13.4
2016-05-21T01:52:26.077Z,13.4
2016-05-21T01:52:36.077Z,13.4
2016-05-21T01:52:46.077Z,13.4
2016-05-21T01:52:56.077Z,13.4
2016-05-21T01:53:06.077Z,13.4
2016-05-21T01:53:16.080Z,13.4
2016-05-21T01:53:26.096Z,13.4
2016-05-21T01:53:36.143Z,13.4
2016-05-21T01:53:46.080Z,13.4
2016-05-21T01:53:56.096Z,13.4
2016-05-21T01:54:06.096Z,13.4
2016-05-21T01:54:16.099Z,13.4
2016-05-21T01:54:26.099Z,13.4
2016-05-21T01:54:36.099Z,13.3
2016-05-21T01:54:45.958Z,13.4
2016-05-21T01:54:56.115Z,13.4
2016-05-21T01:55:05.958Z,13.3
2016-05-21T01:55:16.102Z,13.4
2016-05-21T01:55:26.118Z,13.4
2016-05-21T01:55:36.118Z,13.4
2016-05-21T01:55:46.118Z,13.4
2016-05-21T01:55:56.180Z,13.4
2016-05-21T01:56:06.555Z,13.3
2016-05-21T01:56:16.121Z,13.4
2016-05-21T01:56:26.152Z,13.4
2016-05-21T01:56:36.121Z,13.4
2016-05-21T01:56:46.433Z,13.4
2016-05-21T01:56:56.121Z,13.3
2016-05-21T01:57:06.136Z,13.4
2016-05-21T01:57:16.138Z,13.4
2016-05-21T01:57:26.138Z,13.3
2016-05-21T01:57:36.138Z,13.4
2016-05-21T01:57:46.138Z,13.4
2016-05-21T01:57:56.138Z,13.4
2016-05-21T01:58:06.138Z,13.4
2016-05-21T01:58:16.141Z,13.3
2016-05-21T01:58:26.141Z,13.3
2016-05-21T01:58:36.141Z,13.3
2016-05-21T01:58:46.157Z,13.4
2016-05-21T01:58:56.157Z,13.3
2016-05-21T01:59:06.157Z,13.4
2016-05-21T01:59:16.160Z,13.4
2016-05-21T01:59:26.160Z,13.4
2016-05-21T01:59:36.004Z,13.3
2016-05-21T01:59:46.019Z,13.4
2016-05-21T01:59:56.175Z,13.3
2016-05-21T02:00:06.160Z,13.3
2016-05-21T02:00:16.162Z,13.3
2016-05-21T02:00:26.177Z,13.2
2016-05-21T02:00:36.177Z,13.3
2016-05-21T02:00:46.177Z,13.3
2016-05-21T02:00:56.177Z,13.4
2016-05-21T02:01:06.177Z,13.3
2016-05-21T02:01:16.040Z,13.3
2016-05-21T02:01:26.180Z,13.4
2016-05-21T02:01:36.180Z,13.3
2016-05-21T02:01:46.196Z,13.3
2016-05-21T02:01:56.196Z,13.3
2016-05-21T02:02:06.040Z,13.3
2016-05-21T02:02:16.198Z,13.3
2016-05-21T02:02:26.057Z,13.4
2016-05-21T02:02:36.198Z,13.2
2016-05-21T02:02:46.198Z,13.3
2016-05-21T02:02:56.901Z,13.3
2016-05-21T02:03:06.198Z,13.3
2016-05-21T02:03:16.201Z,13.3
2016-05-21T02:03:26.201Z,13.3
2016-05-21T02:03:36.217Z,13.4
2016-05-21T02:03:46.201Z,13.4
2016-05-21T02:03:56.217Z,13.3
2016-05-21T02:04:06.217Z,13.2
2016-05-21T02:04:16.220Z,13.3
2016-05-21T02:04:26.220Z,13.3
2016-05-21T02:04:36.220Z,13.2
2016-05-21T02:04:46.220Z,13.3
2016-05-21T02:04:56.220Z,13.3
2016-05-21T02:05:06.251Z,13.3
2016-05-21T02:05:16.222Z,13.3
2016-05-21T02:05:26.237Z,13.3
2016-05-21T02:05:36.237Z,13.3
2016-05-21T02:05:46.237Z,13.3
2016-05-21T02:05:56.237Z,13.2
2016-05-21T02:06:06.253Z,13.3
2016-05-21T02:06:16.240Z,13.3
2016-05-21T02:06:26.240Z,13.3
2016-05-21T02:06:36.100Z,13.2
2016-05-21T02:06:46.240Z,13.2
2016-05-21T02:06:56.256Z,13.3
2016-05-21T02:07:06.256Z,13.3
2016-05-21T02:07:16.259Z,13.3
2016-05-21T02:07:26.103Z,13.3
2016-05-21T02:07:36.259Z,13.2
2016-05-21T02:07:46.259Z,13.3
2016-05-21T02:07:56.259Z,13.3
2016-05-21T02:08:06.259Z,13.2
2016-05-21T02:08:16.120Z,13.2
2016-05-21T02:08:26.261Z,13.3
2016-05-21T02:08:36.277Z,13.2
2016-05-21T02:08:46.277Z,13.3
2016-05-21T02:08:56.261Z,13.3
2016-05-21T02:09:06.277Z,13.2
2016-05-21T02:09:16.280Z,13.3
2016-05-21T02:09:26.280Z,13.3
2016-05-21T02:09:36.280Z,13.3
2016-05-21T02:09:46.295Z,13.2
2016-05-21T02:09:56.295Z,13.2
2016-05-21T02:10:06.295Z,13.3
2016-05-21T02:10:16.298Z,13.2
2016-05-21T02:10:26.298Z,13.3
2016-05-21T02:10:36.142Z,13.3
2016-05-21T02:10:46.298Z,13.2
2016-05-21T02:10:56.142Z,13.2
2016-05-21T02:11:06.798Z,13.3
2016-05-21T02:11:16.754Z,13.2
2016-05-21T02:11:26.317Z,13.2
2016-05-21T02:11:36.786Z,13.3
2016-05-21T02:11:46.739Z,13.3
2016-05-21T02:11:56.317Z,13.2
2016-05-21T02:12:06.301Z,13.3
2016-05-21T02:12:16.320Z,13.3
2016-05-21T02:12:26.320Z,13.3
2016-05-21T02:12:36.164Z,13.3
2016-05-21T02:12:46.320Z,13.3
2016-05-21T02:12:56.320Z,13.3
2016-05-21T02:13:06.320Z,13.3
2016-05-21T02:13:16.181Z,13.3
2016-05-21T02:13:26.181Z,13.3
2016-05-21T02:13:36.337Z,13.2